sensor_id;sensor_type;location;lat;lon;timestamp;P1;durP1;ratioP1;P2;durP2;ratioP2
19113;SDS011;9689;51.052;13.772;2023-08-17T00:03:33;12.27;;;7.90;;
19113;SDS011;9689;51.052;13.772;2023-08-17T00:08:38;18.67;;;8.05;;
19113;SDS011;9689;51.052;13.772;2023-08-17T00:13:38;10.70;;;8.05;;
19113;SDS011;9689;51.052;13.772;2023-08-17T00:18:39;11.18;;;7.90;;
19113;SDS011;9689;51.052;13.772;2023-08-17T00:23:42;10.75;;;7.63;;
19113;SDS011;9689;51.052;13.772;2023-08-17T00:28:42;14.70;;;9.00;;
19113;SDS011;9689;51.052;13.772;2023-08-17T00:33:43;12.38;;;8.60;;
19113;SDS011;9689;51.052;13.772;2023-08-17T00:38:45;13.70;;;9.25;;
19113;SDS011;9689;51.052;13.772;2023-08-17T00:43:46;11.38;;;8.82;;
19113;SDS011;9689;51.052;13.772;2023-08-17T00:48:47;12.68;;;8.68;;
19113;SDS011;9689;51.052;13.772;2023-08-17T00:53:49;12.93;;;8.90;;
19113;SDS011;9689;51.052;13.772;2023-08-17T00:58:51;14.43;;;8.68;;
19113;SDS011;9689;51.052;13.772;2023-08-17T01:03:52;13.93;;;8.70;;
19113;SDS011;9689;51.052;13.772;2023-08-17T01:08:54;13.77;;;8.48;;
19113;SDS011;9689;51.052;13.772;2023-08-17T01:13:55;13.52;;;8.73;;
19113;SDS011;9689;51.052;13.772;2023-08-17T01:19:00;11.82;;;8.82;;
19113;SDS011;9689;51.052;13.772;2023-08-17T01:24:04;14.90;;;9.05;;
19113;SDS011;9689;51.052;13.772;2023-08-17T01:29:05;11.98;;;9.02;;
19113;SDS011;9689;51.052;13.772;2023-08-17T01:34:08;13.55;;;9.32;;
19113;SDS011;9689;51.052;13.772;2023-08-17T01:39:19;12.73;;;9.43;;
19113;SDS011;9689;51.052;13.772;2023-08-17T01:44:24;14.63;;;9.88;;
19113;SDS011;9689;51.052;13.772;2023-08-17T01:49:26;16.98;;;10.43;;
19113;SDS011;9689;51.052;13.772;2023-08-17T01:54:29;14.45;;;10.52;;
19113;SDS011;9689;51.052;13.772;2023-08-17T01:59:29;15.65;;;10.32;;
19113;SDS011;9689;51.052;13.772;2023-08-17T02:04:30;16.58;;;10.48;;
19113;SDS011;9689;51.052;13.772;2023-08-17T02:09:33;14.93;;;12.18;;
19113;SDS011;9689;51.052;13.772;2023-08-17T02:14:34;16.00;;;10.43;;
19113;SDS011;9689;51.052;13.772;2023-08-17T02:19:35;18.65;;;10.55;;
19113;SDS011;9689;51.052;13.772;2023-08-17T02:24:37;11.93;;;8.95;;
19113;SDS011;9689;51.052;13.772;2023-08-17T02:29:38;14.98;;;9.05;;
19113;SDS011;9689;51.052;13.772;2023-08-17T02:34:39;8.65;;;7.20;;
19113;SDS011;9689;51.052;13.772;2023-08-17T02:39:41;12.00;;;6.60;;
19113;SDS011;9689;51.052;13.772;2023-08-17T02:44:42;10.55;;;7.15;;
19113;SDS011;9689;51.052;13.772;2023-08-17T02:49:43;8.40;;;6.00;;
19113;SDS011;9689;51.052;13.772;2023-08-17T02:54:46;10.68;;;5.88;;
19113;SDS011;9689;51.052;13.772;2023-08-17T02:59:47;8.20;;;6.32;;
19113;SDS011;9689;51.052;13.772;2023-08-17T03:04:48;10.18;;;6.47;;
19113;SDS011;9689;51.052;13.772;2023-08-17T03:09:50;9.68;;;6.88;;
19113;SDS011;9689;51.052;13.772;2023-08-17T03:14:51;10.13;;;8.15;;
19113;SDS011;9689;51.052;13.772;2023-08-17T03:19:52;9.10;;;6.82;;
19113;SDS011;9689;51.052;13.772;2023-08-17T03:24:56;11.45;;;7.47;;
19113;SDS011;9689;51.052;13.772;2023-08-17T03:29:56;14.88;;;8.73;;
19113;SDS011;9689;51.052;13.772;2023-08-17T03:34:57;14.30;;;9.82;;
19113;SDS011;9689;51.052;13.772;2023-08-17T03:39:59;13.77;;;9.57;;
19113;SDS011;9689;51.052;13.772;2023-08-17T03:45:03;16.58;;;10.82;;
19113;SDS011;9689;51.052;13.772;2023-08-17T03:50:05;13.88;;;10.90;;
19113;SDS011;9689;51.052;13.772;2023-08-17T03:55:10;17.30;;;11.48;;
19113;SDS011;9689;51.052;13.772;2023-08-17T04:00:11;18.63;;;11.10;;
19113;SDS011;9689;51.052;13.772;2023-08-17T04:05:13;17.40;;;11.63;;
19113;SDS011;9689;51.052;13.772;2023-08-17T04:10:15;21.38;;;13.15;;
19113;SDS011;9689;51.052;13.772;2023-08-17T04:15:16;18.30;;;11.82;;
19113;SDS011;9689;51.052;13.772;2023-08-17T04:20:17;16.95;;;12.52;;
19113;SDS011;9689;51.052;13.772;2023-08-17T04:25:20;20.40;;;11.88;;
19113;SDS011;9689;51.052;13.772;2023-08-17T04:30:20;14.80;;;11.57;;
19113;SDS011;9689;51.052;13.772;2023-08-17T04:35:27;16.98;;;10.70;;
19113;SDS011;9689;51.052;13.772;2023-08-17T04:40:30;15.93;;;10.68;;
19113;SDS011;9689;51.052;13.772;2023-08-17T04:45:32;15.13;;;10.45;;
19113;SDS011;9689;51.052;13.772;2023-08-17T04:50:33;18.17;;;10.35;;
19113;SDS011;9689;51.052;13.772;2023-08-17T04:55:35;18.10;;;10.02;;
19113;SDS011;9689;51.052;13.772;2023-08-17T05:00:36;16.25;;;10.32;;
19113;SDS011;9689;51.052;13.772;2023-08-17T05:05:37;14.18;;;9.95;;
19113;SDS011;9689;51.052;13.772;2023-08-17T05:10:43;20.67;;;10.05;;
19113;SDS011;9689;51.052;13.772;2023-08-17T05:15:43;11.23;;;9.02;;
19113;SDS011;9689;51.052;13.772;2023-08-17T05:20:46;17.98;;;9.30;;
19113;SDS011;9689;51.052;13.772;2023-08-17T05:25:48;14.30;;;8.82;;
19113;SDS011;9689;51.052;13.772;2023-08-17T05:30:49;13.13;;;8.05;;
19113;SDS011;9689;51.052;13.772;2023-08-17T05:35:53;12.23;;;8.00;;
19113;SDS011;9689;51.052;13.772;2023-08-17T05:40:56;17.25;;;8.30;;
19113;SDS011;9689;51.052;13.772;2023-08-17T05:45:57;10.57;;;7.57;;
19113;SDS011;9689;51.052;13.772;2023-08-17T05:50:59;10.95;;;7.72;;
19113;SDS011;9689;51.052;13.772;2023-08-17T05:56:01;13.27;;;8.05;;
19113;SDS011;9689;51.052;13.772;2023-08-17T06:01:05;14.52;;;8.15;;
19113;SDS011;9689;51.052;13.772;2023-08-17T06:06:07;17.42;;;7.50;;
19113;SDS011;9689;51.052;13.772;2023-08-17T06:11:09;12.60;;;7.20;;
19113;SDS011;9689;51.052;13.772;2023-08-17T06:16:10;10.10;;;7.22;;
19113;SDS011;9689;51.052;13.772;2023-08-17T06:21:11;14.00;;;7.60;;
19113;SDS011;9689;51.052;13.772;2023-08-17T06:26:13;15.60;;;8.45;;
19113;SDS011;9689;51.052;13.772;2023-08-17T06:31:14;10.02;;;8.07;;
19113;SDS011;9689;51.052;13.772;2023-08-17T06:36:15;13.48;;;8.63;;
19113;SDS011;9689;51.052;13.772;2023-08-17T06:41:17;12.30;;;8.73;;
19113;SDS011;9689;51.052;13.772;2023-08-17T06:46:18;12.90;;;8.80;;
19113;SDS011;9689;51.052;13.772;2023-08-17T06:51:19;12.45;;;8.32;;
19113;SDS011;9689;51.052;13.772;2023-08-17T06:56:21;11.40;;;7.45;;
19113;SDS011;9689;51.052;13.772;2023-08-17T07:01:22;16.25;;;9.55;;
19113;SDS011;9689;51.052;13.772;2023-08-17T07:06:23;12.77;;;8.27;;
19113;SDS011;9689;51.052;13.772;2023-08-17T07:11:25;12.55;;;7.65;;
19113;SDS011;9689;51.052;13.772;2023-08-17T07:16:25;14.10;;;9.68;;
19113;SDS011;9689;51.052;13.772;2023-08-17T07:21:26;12.82;;;8.93;;
19113;SDS011;9689;51.052;13.772;2023-08-17T07:26:28;12.60;;;8.50;;
19113;SDS011;9689;51.052;13.772;2023-08-17T07:31:29;12.05;;;7.85;;
19113;SDS011;9689;51.052;13.772;2023-08-17T07:36:30;14.63;;;8.57;;
19113;SDS011;9689;51.052;13.772;2023-08-17T07:41:33;10.80;;;7.57;;
19113;SDS011;9689;51.052;13.772;2023-08-17T07:46:33;12.40;;;7.72;;
19113;SDS011;9689;51.052;13.772;2023-08-17T07:51:34;14.07;;;7.85;;
19113;SDS011;9689;51.052;13.772;2023-08-17T07:56:36;12.40;;;7.68;;
19113;SDS011;9689;51.052;13.772;2023-08-17T08:01:37;13.07;;;7.25;;
19113;SDS011;9689;51.052;13.772;2023-08-17T08:06:39;9.80;;;6.65;;
19113;SDS011;9689;51.052;13.772;2023-08-17T08:11:41;10.35;;;6.80;;
19113;SDS011;9689;51.052;13.772;2023-08-17T08:16:42;13.15;;;6.35;;
19113;SDS011;9689;51.052;13.772;2023-08-17T08:21:43;10.57;;;5.93;;
19113;SDS011;9689;51.052;13.772;2023-08-17T08:26:45;7.30;;;5.95;;
19113;SDS011;9689;51.052;13.772;2023-08-17T08:31:45;10.98;;;8.23;;
19113;SDS011;9689;51.052;13.772;2023-08-17T08:36:46;7.03;;;5.93;;
19113;SDS011;9689;51.052;13.772;2023-08-17T08:41:49;7.82;;;5.95;;
19113;SDS011;9689;51.052;13.772;2023-08-17T08:46:50;8.45;;;6.32;;
19113;SDS011;9689;51.052;13.772;2023-08-17T08:51:54;9.88;;;6.55;;
19113;SDS011;9689;51.052;13.772;2023-08-17T08:57:03;8.27;;;6.10;;
19113;SDS011;9689;51.052;13.772;2023-08-17T09:02:06;10.02;;;5.63;;
19113;SDS011;9689;51.052;13.772;2023-08-17T09:07:12;8.73;;;5.00;;
19113;SDS011;9689;51.052;13.772;2023-08-17T09:12:15;10.50;;;5.55;;
19113;SDS011;9689;51.052;13.772;2023-08-17T09:17:32;6.10;;;5.10;;
19113;SDS011;9689;51.052;13.772;2023-08-17T09:22:38;9.85;;;6.22;;
19113;SDS011;9689;51.052;13.772;2023-08-17T09:27:41;6.45;;;5.20;;
19113;SDS011;9689;51.052;13.772;2023-08-17T09:32:42;7.40;;;5.80;;
19113;SDS011;9689;51.052;13.772;2023-08-17T09:37:43;6.60;;;5.30;;
19113;SDS011;9689;51.052;13.772;2023-08-17T09:42:45;7.88;;;5.47;;
19113;SDS011;9689;51.052;13.772;2023-08-17T09:47:46;7.57;;;5.45;;
19113;SDS011;9689;51.052;13.772;2023-08-17T09:52:46;7.85;;;5.32;;
19113;SDS011;9689;51.052;13.772;2023-08-17T09:57:51;7.72;;;6.00;;
19113;SDS011;9689;51.052;13.772;2023-08-17T10:02:52;7.10;;;5.85;;
19113;SDS011;9689;51.052;13.772;2023-08-17T10:07:54;8.15;;;6.38;;
19113;SDS011;9689;51.052;13.772;2023-08-17T10:13:01;6.60;;;5.32;;
19113;SDS011;9689;51.052;13.772;2023-08-17T10:18:09;9.30;;;6.45;;
19113;SDS011;9689;51.052;13.772;2023-08-17T10:23:18;9.43;;;6.75;;
19113;SDS011;9689;51.052;13.772;2023-08-17T10:28:22;8.48;;;6.72;;
19113;SDS011;9689;51.052;13.772;2023-08-17T10:33:24;8.57;;;6.82;;
19113;SDS011;9689;51.052;13.772;2023-08-17T10:38:27;7.72;;;6.82;;
19113;SDS011;9689;51.052;13.772;2023-08-17T10:43:33;9.55;;;6.25;;
19113;SDS011;9689;51.052;13.772;2023-08-17T10:48:34;8.32;;;6.45;;
19113;SDS011;9689;51.052;13.772;2023-08-17T10:53:36;10.15;;;8.07;;
19113;SDS011;9689;51.052;13.772;2023-08-17T10:58:43;12.35;;;6.93;;
19113;SDS011;9689;51.052;13.772;2023-08-17T11:03:44;12.57;;;6.63;;
19113;SDS011;9689;51.052;13.772;2023-08-17T11:08:51;10.45;;;6.57;;
19113;SDS011;9689;51.052;13.772;2023-08-17T11:13:56;9.30;;;6.70;;
19113;SDS011;9689;51.052;13.772;2023-08-17T11:18:57;10.38;;;6.25;;
19113;SDS011;9689;51.052;13.772;2023-08-17T11:24:01;10.48;;;7.88;;
19113;SDS011;9689;51.052;13.772;2023-08-17T11:29:03;12.00;;;7.70;;
19113;SDS011;9689;51.052;13.772;2023-08-17T11:34:04;9.68;;;6.88;;
19113;SDS011;9689;51.052;13.772;2023-08-17T11:39:06;8.73;;;6.55;;
19113;SDS011;9689;51.052;13.772;2023-08-17T11:44:10;11.05;;;6.90;;
19113;SDS011;9689;51.052;13.772;2023-08-17T11:49:12;8.20;;;7.18;;
19113;SDS011;9689;51.052;13.772;2023-08-17T11:54:13;7.53;;;6.10;;
19113;SDS011;9689;51.052;13.772;2023-08-17T11:59:15;8.82;;;6.95;;
19113;SDS011;9689;51.052;13.772;2023-08-17T12:04:17;14.30;;;6.78;;
19113;SDS011;9689;51.052;13.772;2023-08-17T12:09:26;10.60;;;7.80;;
19113;SDS011;9689;51.052;13.772;2023-08-17T12:14:28;9.02;;;6.68;;
19113;SDS011;9689;51.052;13.772;2023-08-17T12:19:29;11.32;;;6.95;;
19113;SDS011;9689;51.052;13.772;2023-08-17T12:24:30;8.88;;;6.95;;
19113;SDS011;9689;51.052;13.772;2023-08-17T12:29:32;10.65;;;6.18;;
19113;SDS011;9689;51.052;13.772;2023-08-17T12:34:33;7.07;;;6.07;;
19113;SDS011;9689;51.052;13.772;2023-08-17T12:39:34;9.50;;;6.18;;
19113;SDS011;9689;51.052;13.772;2023-08-17T12:44:36;7.13;;;6.10;;
19113;SDS011;9689;51.052;13.772;2023-08-17T12:49:37;7.93;;;5.28;;
19113;SDS011;9689;51.052;13.772;2023-08-17T12:54:38;9.73;;;5.22;;
19113;SDS011;9689;51.052;13.772;2023-08-17T12:59:41;5.70;;;4.90;;
19113;SDS011;9689;51.052;13.772;2023-08-17T13:04:41;9.48;;;5.45;;
19113;SDS011;9689;51.052;13.772;2023-08-17T13:09:42;8.93;;;5.05;;
19113;SDS011;9689;51.052;13.772;2023-08-17T13:14:48;7.57;;;6.05;;
19113;SDS011;9689;51.052;13.772;2023-08-17T13:19:49;11.60;;;5.68;;
19113;SDS011;9689;51.052;13.772;2023-08-17T13:24:50;7.85;;;5.50;;
19113;SDS011;9689;51.052;13.772;2023-08-17T13:29:52;8.52;;;5.57;;
19113;SDS011;9689;51.052;13.772;2023-08-17T13:34:52;7.05;;;6.18;;
19113;SDS011;9689;51.052;13.772;2023-08-17T13:39:54;6.20;;;5.50;;
19113;SDS011;9689;51.052;13.772;2023-08-17T13:44:56;8.85;;;5.55;;
19113;SDS011;9689;51.052;13.772;2023-08-17T13:49:57;6.60;;;5.70;;
19113;SDS011;9689;51.052;13.772;2023-08-17T13:54:58;7.15;;;5.25;;
19113;SDS011;9689;51.052;13.772;2023-08-17T14:00:00;8.77;;;6.10;;
19113;SDS011;9689;51.052;13.772;2023-08-17T14:05:03;6.20;;;5.30;;
19113;SDS011;9689;51.052;13.772;2023-08-17T14:10:05;9.00;;;5.78;;
19113;SDS011;9689;51.052;13.772;2023-08-17T14:15:15;6.78;;;5.45;;
19113;SDS011;9689;51.052;13.772;2023-08-17T14:20:16;7.97;;;5.43;;
19113;SDS011;9689;51.052;13.772;2023-08-17T14:25:17;10.13;;;6.57;;
19113;SDS011;9689;51.052;13.772;2023-08-17T14:30:19;13.68;;;6.40;;
19113;SDS011;9689;51.052;13.772;2023-08-17T14:35:20;10.40;;;6.30;;
19113;SDS011;9689;51.052;13.772;2023-08-17T14:40:21;11.85;;;5.93;;
19113;SDS011;9689;51.052;13.772;2023-08-17T14:45:23;7.93;;;6.53;;
19113;SDS011;9689;51.052;13.772;2023-08-17T14:50:24;8.63;;;6.38;;
19113;SDS011;9689;51.052;13.772;2023-08-17T14:55:27;9.23;;;6.63;;
19113;SDS011;9689;51.052;13.772;2023-08-17T15:00:29;7.07;;;5.95;;
19113;SDS011;9689;51.052;13.772;2023-08-17T15:05:32;12.77;;;6.10;;
19113;SDS011;9689;51.052;13.772;2023-08-17T15:10:35;8.30;;;5.82;;
19113;SDS011;9689;51.052;13.772;2023-08-17T15:15:37;9.80;;;6.63;;
19113;SDS011;9689;51.052;13.772;2023-08-17T15:20:38;10.60;;;5.22;;
19113;SDS011;9689;51.052;13.772;2023-08-17T15:25:39;7.55;;;5.43;;
19113;SDS011;9689;51.052;13.772;2023-08-17T15:30:41;8.13;;;5.25;;
19113;SDS011;9689;51.052;13.772;2023-08-17T15:35:42;6.55;;;5.70;;
19113;SDS011;9689;51.052;13.772;2023-08-17T15:40:43;7.55;;;6.20;;
19113;SDS011;9689;51.052;13.772;2023-08-17T15:45:45;11.95;;;6.07;;
19113;SDS011;9689;51.052;13.772;2023-08-17T15:50:46;7.85;;;5.82;;
19113;SDS011;9689;51.052;13.772;2023-08-17T15:55:47;8.65;;;6.38;;
19113;SDS011;9689;51.052;13.772;2023-08-17T16:00:49;9.02;;;6.65;;
19113;SDS011;9689;51.052;13.772;2023-08-17T16:05:49;6.55;;;5.85;;
19113;SDS011;9689;51.052;13.772;2023-08-17T16:10:50;7.25;;;5.70;;
19113;SDS011;9689;51.052;13.772;2023-08-17T16:15:52;6.93;;;5.53;;
19113;SDS011;9689;51.052;13.772;2023-08-17T16:20:53;9.55;;;6.65;;
19113;SDS011;9689;51.052;13.772;2023-08-17T16:25:54;8.52;;;7.13;;
19113;SDS011;9689;51.052;13.772;2023-08-17T16:30:56;9.60;;;7.20;;
19113;SDS011;9689;51.052;13.772;2023-08-17T16:36:02;8.20;;;6.25;;
19113;SDS011;9689;51.052;13.772;2023-08-17T16:41:03;7.40;;;6.38;;
19113;SDS011;9689;51.052;13.772;2023-08-17T16:46:06;7.60;;;6.57;;
19113;SDS011;9689;51.052;13.772;2023-08-17T16:51:06;7.68;;;6.80;;
19113;SDS011;9689;51.052;13.772;2023-08-17T16:56:07;12.20;;;6.15;;
19113;SDS011;9689;51.052;13.772;2023-08-17T17:01:09;8.35;;;6.28;;
19113;SDS011;9689;51.052;13.772;2023-08-17T17:06:13;11.63;;;7.07;;
19113;SDS011;9689;51.052;13.772;2023-08-17T17:11:14;7.97;;;6.28;;
19113;SDS011;9689;51.052;13.772;2023-08-17T17:16:16;9.32;;;6.82;;
19113;SDS011;9689;51.052;13.772;2023-08-17T17:21:19;9.02;;;6.75;;
19113;SDS011;9689;51.052;13.772;2023-08-17T17:26:21;10.25;;;6.60;;
19113;SDS011;9689;51.052;13.772;2023-08-17T17:31:25;9.77;;;6.35;;
19113;SDS011;9689;51.052;13.772;2023-08-17T17:36:26;9.63;;;7.07;;
19113;SDS011;9689;51.052;13.772;2023-08-17T17:41:29;8.15;;;6.22;;
19113;SDS011;9689;51.052;13.772;2023-08-17T17:46:32;8.57;;;7.35;;
19113;SDS011;9689;51.052;13.772;2023-08-17T17:51:34;13.10;;;7.28;;
19113;SDS011;9689;51.052;13.772;2023-08-17T17:56:38;10.68;;;6.93;;
19113;SDS011;9689;51.052;13.772;2023-08-17T18:01:40;8.57;;;7.18;;
19113;SDS011;9689;51.052;13.772;2023-08-17T18:06:41;12.15;;;6.53;;
19113;SDS011;9689;51.052;13.772;2023-08-17T18:11:42;8.45;;;6.32;;
19113;SDS011;9689;51.052;13.772;2023-08-17T18:16:44;9.63;;;5.68;;
19113;SDS011;9689;51.052;13.772;2023-08-17T18:21:45;9.15;;;6.00;;
19113;SDS011;9689;51.052;13.772;2023-08-17T18:26:46;8.00;;;6.40;;
19113;SDS011;9689;51.052;13.772;2023-08-17T18:31:48;13.05;;;6.50;;
19113;SDS011;9689;51.052;13.772;2023-08-17T18:36:49;7.95;;;6.45;;
19113;SDS011;9689;51.052;13.772;2023-08-17T18:41:50;10.20;;;5.55;;
19113;SDS011;9689;51.052;13.772;2023-08-17T18:46:52;6.90;;;5.43;;
19113;SDS011;9689;51.052;13.772;2023-08-17T18:51:53;7.93;;;5.57;;
19113;SDS011;9689;51.052;13.772;2023-08-17T18:56:54;7.75;;;6.00;;
19113;SDS011;9689;51.052;13.772;2023-08-17T19:01:56;9.38;;;5.70;;
19113;SDS011;9689;51.052;13.772;2023-08-17T19:06:57;10.90;;;6.60;;
19113;SDS011;9689;51.052;13.772;2023-08-17T19:11:58;10.25;;;5.20;;
19113;SDS011;9689;51.052;13.772;2023-08-17T19:17:00;16.13;;;5.85;;
19113;SDS011;9689;51.052;13.772;2023-08-17T19:22:01;10.57;;;6.38;;
19113;SDS011;9689;51.052;13.772;2023-08-17T19:27:02;10.38;;;5.50;;
19113;SDS011;9689;51.052;13.772;2023-08-17T19:32:04;7.40;;;6.00;;
19113;SDS011;9689;51.052;13.772;2023-08-17T19:37:05;9.90;;;5.97;;
19113;SDS011;9689;51.052;13.772;2023-08-17T19:42:06;10.98;;;8.38;;
19113;SDS011;9689;51.052;13.772;2023-08-17T19:47:08;14.90;;;9.35;;
19113;SDS011;9689;51.052;13.772;2023-08-17T19:52:10;7.05;;;5.95;;
19113;SDS011;9689;51.052;13.772;2023-08-17T19:57:12;6.80;;;5.80;;
19113;SDS011;9689;51.052;13.772;2023-08-17T20:02:14;6.95;;;5.40;;
19113;SDS011;9689;51.052;13.772;2023-08-17T20:07:15;6.03;;;5.10;;
19113;SDS011;9689;51.052;13.772;2023-08-17T20:12:16;6.68;;;4.95;;
19113;SDS011;9689;51.052;13.772;2023-08-17T20:17:18;6.53;;;5.07;;
19113;SDS011;9689;51.052;13.772;2023-08-17T20:22:19;7.32;;;4.00;;
19113;SDS011;9689;51.052;13.772;2023-08-17T20:27:20;6.60;;;5.10;;
19113;SDS011;9689;51.052;13.772;2023-08-17T20:32:22;11.75;;;4.50;;
19113;SDS011;9689;51.052;13.772;2023-08-17T20:37:23;9.73;;;4.63;;
19113;SDS011;9689;51.052;13.772;2023-08-17T20:42:24;7.03;;;4.22;;
19113;SDS011;9689;51.052;13.772;2023-08-17T20:47:27;6.88;;;4.70;;
19113;SDS011;9689;51.052;13.772;2023-08-17T20:52:28;8.07;;;4.90;;
19113;SDS011;9689;51.052;13.772;2023-08-17T20:57:29;8.13;;;4.63;;
19113;SDS011;9689;51.052;13.772;2023-08-17T21:02:31;8.77;;;5.00;;
19113;SDS011;9689;51.052;13.772;2023-08-17T21:07:32;9.65;;;4.78;;
19113;SDS011;9689;51.052;13.772;2023-08-17T21:12:34;9.35;;;5.00;;
19113;SDS011;9689;51.052;13.772;2023-08-17T21:17:36;9.10;;;4.18;;
19113;SDS011;9689;51.052;13.772;2023-08-17T21:22:37;6.30;;;4.80;;
19113;SDS011;9689;51.052;13.772;2023-08-17T21:27:38;8.68;;;4.90;;
19113;SDS011;9689;51.052;13.772;2023-08-17T21:32:40;11.30;;;5.30;;
19113;SDS011;9689;51.052;13.772;2023-08-17T21:37:41;9.73;;;6.25;;
19113;SDS011;9689;51.052;13.772;2023-08-17T21:42:44;13.15;;;7.70;;
19113;SDS011;9689;51.052;13.772;2023-08-17T21:47:47;7.20;;;5.72;;
19113;SDS011;9689;51.052;13.772;2023-08-17T21:52:50;8.32;;;5.45;;
19113;SDS011;9689;51.052;13.772;2023-08-17T21:57:51;8.82;;;5.03;;
19113;SDS011;9689;51.052;13.772;2023-08-17T22:02:53;7.63;;;5.07;;
19113;SDS011;9689;51.052;13.772;2023-08-17T22:07:54;7.80;;;5.40;;
19113;SDS011;9689;51.052;13.772;2023-08-17T22:12:54;5.35;;;4.28;;
19113;SDS011;9689;51.052;13.772;2023-08-17T22:17:57;8.73;;;4.80;;
19113;SDS011;9689;51.052;13.772;2023-08-17T22:22:57;9.27;;;5.10;;
19113;SDS011;9689;51.052;13.772;2023-08-17T22:27:58;9.32;;;5.15;;
19113;SDS011;9689;51.052;13.772;2023-08-17T22:33:00;8.38;;;5.47;;
19113;SDS011;9689;51.052;13.772;2023-08-17T22:38:01;5.57;;;4.65;;
19113;SDS011;9689;51.052;13.772;2023-08-17T22:43:02;10.20;;;4.80;;
19113;SDS011;9689;51.052;13.772;2023-08-17T22:48:05;9.77;;;5.55;;
19113;SDS011;9689;51.052;13.772;2023-08-17T22:53:06;8.50;;;5.35;;
19113;SDS011;9689;51.052;13.772;2023-08-17T22:58:07;8.05;;;5.25;;
19113;SDS011;9689;51.052;13.772;2023-08-17T23:03:09;6.28;;;5.07;;
19113;SDS011;9689;51.052;13.772;2023-08-17T23:08:10;7.47;;;5.75;;
19113;SDS011;9689;51.052;13.772;2023-08-17T23:13:10;10.75;;;5.93;;
19113;SDS011;9689;51.052;13.772;2023-08-17T23:18:12;8.60;;;5.60;;
19113;SDS011;9689;51.052;13.772;2023-08-17T23:23:13;8.32;;;5.85;;
19113;SDS011;9689;51.052;13.772;2023-08-17T23:28:14;6.53;;;5.35;;
19113;SDS011;9689;51.052;13.772;2023-08-17T23:33:16;8.45;;;5.50;;
19113;SDS011;9689;51.052;13.772;2023-08-17T23:38:17;9.30;;;6.00;;
19113;SDS011;9689;51.052;13.772;2023-08-17T23:43:18;7.68;;;5.65;;
19113;SDS011;9689;51.052;13.772;2023-08-17T23:48:20;6.15;;;5.22;;
19113;SDS011;9689;51.052;13.772;2023-08-17T23:53:20;7.68;;;5.55;;
19113;SDS011;9689;51.052;13.772;2023-08-17T23:58:21;8.18;;;6.20;;
